createdAt,value
2023-01-22T00:03:55.053Z,62.94
2023-01-22T00:08:07.429Z,61.44
2023-01-22T00:12:19.753Z,62.48
2023-01-22T00:16:32.135Z,65.28
2023-01-22T00:20:48.731Z,64.00
2023-01-22T00:25:01.015Z,65.25
2023-01-22T00:29:13.548Z,66.17
2023-01-22T00:33:26.038Z,69.94
2023-01-22T00:37:38.549Z,67.57
2023-01-22T00:41:51.057Z,66.71
2023-01-22T00:46:03.450Z,67.63
2023-01-22T00:50:16.113Z,67.91
2023-01-22T00:54:30.141Z,69.19
2023-01-22T00:58:42.907Z,70.08
2023-01-22T01:03:14.546Z,71.07
2023-01-22T01:07:27.415Z,71.09
2023-01-22T01:11:41.681Z,70.65
2023-01-22T01:16:06.313Z,70.85
2023-01-22T01:20:18.941Z,71.00
2023-01-22T01:24:32.534Z,70.14
2023-01-22T01:28:46.043Z,71.21
2023-01-22T01:33:01.579Z,69.96
2023-01-22T01:37:13.942Z,70.04
2023-01-22T01:41:27.534Z,69.95
2023-01-22T01:45:40.083Z,69.75
2023-01-22T01:49:54.113Z,70.60
2023-01-22T01:54:08.231Z,70.16
2023-01-22T01:58:24.114Z,69.53
2023-01-22T02:02:38.069Z,68.88
2023-01-22T02:06:50.432Z,68.59
2023-01-22T02:11:02.849Z,68.80
2023-01-22T02:15:15.329Z,68.67
2023-01-22T02:19:36.796Z,68.33
2023-01-22T02:23:49.709Z,68.94
2023-01-22T02:28:02.175Z,68.98
2023-01-22T02:32:14.750Z,67.24
2023-01-22T02:36:27.985Z,67.96
2023-01-22T02:40:49.547Z,69.46
2023-01-22T02:45:05.275Z,67.85
2023-01-22T02:49:18.916Z,67.58
2023-01-22T02:53:33.831Z,64.75
2023-01-22T02:57:49.202Z,65.50
2023-01-22T03:02:02.196Z,66.97
2023-01-22T03:06:16.183Z,66.94
2023-01-22T03:10:28.537Z,67.77
2023-01-22T03:14:59.951Z,67.07
2023-01-22T03:19:32.573Z,66.49
2023-01-22T03:23:47.427Z,65.59
2023-01-22T03:28:16.814Z,67.68
2023-01-22T03:32:35.014Z,66.37
2023-01-22T03:36:48.719Z,66.15
2023-01-22T03:41:21.568Z,65.44
2023-01-22T03:45:35.828Z,66.14
2023-01-22T03:49:50.106Z,65.59
2023-01-22T03:54:03.047Z,65.96
2023-01-22T03:58:15.508Z,65.57
2023-01-22T04:02:31.503Z,65.86
2023-01-22T04:06:56.932Z,64.82
2023-01-22T04:11:09.844Z,64.82
2023-01-22T04:15:22.866Z,64.95
2023-01-22T04:19:36.723Z,64.58
2023-01-22T04:23:49.021Z,63.42
2023-01-22T04:28:02.164Z,63.28
2023-01-22T04:32:19.811Z,61.75
2023-01-22T04:36:38.622Z,61.11
2023-01-22T04:40:51.842Z,61.66
2023-01-22T04:45:04.843Z,62.37
2023-01-22T04:49:17.823Z,62.52
2023-01-22T04:53:32.180Z,63.43
2023-01-22T04:57:46.637Z,63.42
2023-01-22T05:01:59.766Z,63.47
2023-01-22T05:06:14.531Z,61.40
2023-01-22T05:10:30.580Z,60.05
2023-01-22T05:14:43.306Z,59.51
2023-01-22T05:18:56.593Z,58.42
2023-01-22T05:23:13.880Z,57.20
2023-01-22T05:27:30.179Z,57.80
2023-01-22T05:31:56.319Z,59.71
2023-01-22T05:36:18.168Z,60.41
2023-01-22T05:40:30.796Z,61.31
2023-01-22T05:44:43.568Z,61.75
2023-01-22T05:48:58.404Z,62.90
2023-01-22T05:53:12.377Z,62.02
2023-01-22T05:57:24.685Z,63.24
2023-01-22T06:01:37.067Z,64.35
2023-01-22T06:05:59.965Z,66.53
2023-01-22T06:10:12.613Z,67.90
2023-01-22T06:14:30.650Z,67.47
2023-01-22T06:18:44.952Z,67.45
2023-01-22T06:22:59.824Z,65.64
2023-01-22T06:27:15.451Z,64.13
2023-01-22T06:31:41.257Z,63.87
2023-01-22T06:35:56.744Z,62.87
2023-01-22T06:40:11.805Z,62.36
2023-01-22T06:44:30.441Z,63.13
2023-01-22T06:48:44.812Z,63.00
2023-01-22T06:52:57.349Z,63.68
2023-01-22T06:57:09.755Z,65.50
2023-01-22T07:01:24.270Z,62.76
2023-01-22T07:05:36.687Z,58.31
2023-01-22T07:09:49.138Z,56.58
2023-01-22T07:14:01.450Z,56.49
2023-01-22T07:18:14.941Z,55.08
2023-01-22T07:22:27.477Z,53.12
2023-01-22T07:26:41.229Z,52.82
2023-01-22T07:30:53.677Z,51.10
2023-01-22T07:35:06.359Z,50.23
2023-01-22T07:39:19.909Z,50.16
2023-01-22T07:43:32.859Z,48.80
2023-01-22T07:48:07.962Z,47.26
2023-01-22T07:52:20.245Z,46.78
2023-01-22T07:56:32.554Z,47.69
2023-01-22T08:00:45.010Z,45.45
2023-01-22T08:04:57.460Z,43.77
2023-01-22T08:09:09.801Z,44.49
2023-01-22T08:13:25.418Z,43.55
2023-01-22T08:17:39.036Z,42.17
2023-01-22T08:21:52.594Z,41.74
2023-01-22T08:26:06.181Z,42.66
2023-01-22T08:30:19.162Z,41.61
2023-01-22T08:34:33.310Z,42.28
2023-01-22T08:38:45.842Z,42.93
2023-01-22T08:42:58.309Z,41.86
2023-01-22T08:47:11.823Z,43.27
2023-01-22T08:51:25.357Z,45.48
2023-01-22T08:55:38.106Z,44.34
2023-01-22T09:00:00.785Z,45.90
2023-01-22T09:04:13.824Z,44.91
2023-01-22T09:08:26.357Z,42.95
2023-01-22T09:12:40.091Z,42.40
2023-01-22T09:16:59.013Z,41.30
2023-01-22T09:21:12.091Z,39.83
2023-01-22T09:25:27.404Z,38.82
2023-01-22T09:29:41.691Z,38.33
2023-01-22T09:33:55.883Z,38.87
2023-01-22T09:38:12.863Z,36.86
2023-01-22T09:42:32.433Z,35.41
2023-01-22T09:46:59.433Z,36.31
2023-01-22T09:51:16.961Z,36.22
2023-01-22T09:55:32.609Z,34.21
2023-01-22T09:59:51.334Z,33.91
2023-01-22T10:04:08.112Z,34.96
2023-01-22T10:08:23.959Z,33.33
2023-01-22T10:12:36.411Z,33.78
2023-01-22T10:16:49.429Z,33.04
2023-01-22T10:21:07.319Z,32.37
2023-01-22T10:25:19.727Z,32.55
2023-01-22T10:29:34.700Z,32.62
2023-01-22T10:33:47.222Z,31.42
2023-01-22T10:38:01.246Z,30.88
2023-01-22T10:42:18.850Z,31.27
2023-01-22T10:46:31.402Z,30.50
2023-01-22T10:50:45.423Z,30.19
2023-01-22T10:55:01.051Z,37.84
2023-01-22T10:59:23.334Z,33.33
2023-01-22T11:03:40.019Z,29.21
2023-01-22T11:08:06.252Z,29.34
2023-01-22T11:12:30.331Z,30.17
2023-01-22T11:16:45.944Z,29.92
2023-01-22T11:21:01.001Z,29.47
2023-01-22T11:25:13.594Z,28.86
2023-01-22T11:30:06.312Z,30.80
2023-01-22T11:34:33.718Z,32.14
2023-01-22T11:39:38.718Z,30.97
2023-01-22T11:44:15.320Z,30.94
2023-01-22T11:48:45.228Z,29.23
2023-01-22T11:53:26.814Z,30.46
2023-01-22T11:57:46.755Z,30.94
2023-01-22T12:02:02.985Z,31.70
2023-01-22T12:06:46.441Z,32.55
2023-01-22T12:11:37.441Z,31.93
2023-01-22T12:15:58.982Z,32.79
2023-01-22T12:20:34.391Z,33.92
2023-01-22T12:25:10.826Z,33.90
2023-01-22T12:29:29.902Z,33.29
2023-01-22T12:33:44.505Z,35.93
2023-01-22T12:38:19.497Z,33.99
2023-01-22T12:42:41.020Z,36.44
2023-01-22T12:47:09.798Z,36.54
2023-01-22T12:51:47.347Z,36.75
2023-01-22T12:56:02.836Z,38.21
2023-01-22T13:00:35.654Z,36.56
2023-01-22T13:04:48.166Z,38.47
2023-01-22T13:09:01.001Z,41.26
2023-01-22T13:13:13.282Z,39.64
2023-01-22T13:17:30.756Z,38.51
2023-01-22T13:21:44.102Z,38.36
2023-01-22T13:25:57.899Z,38.48
2023-01-22T13:30:23.708Z,39.67
2023-01-22T13:34:36.171Z,40.22
2023-01-22T13:38:53.802Z,40.76
2023-01-22T13:43:07.823Z,43.43
2023-01-22T13:47:35.118Z,45.43
2023-01-22T13:51:50.698Z,43.15
2023-01-22T13:56:03.309Z,45.30
2023-01-22T14:00:30.809Z,44.17
2023-01-22T14:04:43.175Z,44.74
2023-01-22T14:08:57.823Z,44.82
2023-01-22T14:13:12.543Z,43.21
2023-01-22T14:17:30.685Z,45.33
2023-01-22T14:21:43.295Z,43.75
2023-01-22T14:25:56.957Z,44.73
2023-01-22T14:30:11.178Z,47.01
2023-01-22T14:34:23.568Z,45.50
2023-01-22T14:38:35.977Z,45.09
2023-01-22T14:42:48.771Z,45.28
2023-01-22T14:47:01.217Z,45.17
2023-01-22T14:51:13.825Z,47.52
2023-01-22T14:55:26.348Z,47.06
2023-01-22T14:59:38.676Z,53.34
2023-01-22T15:03:51.201Z,61.69
2023-01-22T15:08:03.957Z,63.79
2023-01-22T15:12:16.308Z,69.11
2023-01-22T15:16:29.054Z,70.59
2023-01-22T15:20:41.483Z,71.55
2023-01-22T15:24:53.974Z,74.13
2023-01-22T15:29:09.442Z,75.03
2023-01-22T15:33:21.855Z,73.15
2023-01-22T15:37:34.412Z,71.87
2023-01-22T15:41:47.472Z,74.39
2023-01-22T15:46:00.017Z,74.42
2023-01-22T15:50:14.349Z,73.83
2023-01-22T15:54:27.284Z,74.51
2023-01-22T15:58:39.721Z,76.07
2023-01-22T16:02:52.099Z,76.49
2023-01-22T16:07:04.684Z,79.89
2023-01-22T16:11:17.678Z,81.16
2023-01-22T16:15:29.999Z,77.94
2023-01-22T16:19:42.815Z,79.23
2023-01-22T16:23:57.701Z,79.50
2023-01-22T16:28:10.313Z,76.61
2023-01-22T16:32:23.794Z,75.31
2023-01-22T16:36:37.035Z,75.84
2023-01-22T16:40:50.402Z,78.04
2023-01-22T16:45:03.165Z,74.34
2023-01-22T16:49:21.670Z,78.34
2023-01-22T16:53:35.771Z,77.99
2023-01-22T16:57:51.419Z,76.70
2023-01-22T17:02:07.888Z,74.91
2023-01-22T17:06:44.714Z,79.27
2023-01-22T17:10:57.226Z,74.96
2023-01-22T17:15:10.158Z,77.31
2023-01-22T17:19:23.231Z,76.39
2023-01-22T17:23:35.603Z,73.35
2023-01-22T17:27:47.913Z,78.21
2023-01-22T17:32:00.517Z,77.79
2023-01-22T17:36:15.289Z,79.43
2023-01-22T17:40:27.885Z,76.06
2023-01-22T17:44:46.412Z,78.25
2023-01-22T17:49:01.319Z,80.40
2023-01-22T17:53:13.719Z,82.46
2023-01-22T17:57:26.205Z,79.24
2023-01-22T18:01:39.615Z,83.54
2023-01-22T18:05:54.895Z,80.06
2023-01-22T18:10:07.442Z,76.90
2023-01-22T18:14:23.079Z,80.89
2023-01-22T18:18:35.852Z,81.45
2023-01-22T18:22:49.296Z,81.84
2023-01-22T18:27:02.528Z,79.67
2023-01-22T18:31:17.041Z,79.57
2023-01-22T18:35:29.857Z,80.99
2023-01-22T18:39:42.424Z,82.50
2023-01-22T18:43:57.287Z,81.40
2023-01-22T18:48:13.085Z,79.28
2023-01-22T18:52:27.507Z,79.67
2023-01-22T18:56:40.271Z,77.50
2023-01-22T19:00:52.675Z,82.10
2023-01-22T19:05:07.736Z,82.87
2023-01-22T19:09:21.130Z,83.69
2023-01-22T19:13:39.788Z,80.53
2023-01-22T19:17:52.179Z,79.37
2023-01-22T19:22:04.668Z,82.09
2023-01-22T19:26:28.930Z,80.50
2023-01-22T19:30:41.378Z,81.59
2023-01-22T19:34:57.915Z,81.83
2023-01-22T19:39:13.264Z,88.42
2023-01-22T19:43:26.487Z,82.62
2023-01-22T19:47:39.184Z,79.89
2023-01-22T19:51:51.581Z,81.11
2023-01-22T19:56:05.823Z,79.60
2023-01-22T20:00:20.085Z,80.77
2023-01-22T20:04:36.184Z,74.31
2023-01-22T20:08:53.602Z,54.17
2023-01-22T20:13:09.890Z,52.43
2023-01-22T20:17:22.346Z,46.14
2023-01-22T20:21:35.714Z,47.27
2023-01-22T20:25:49.005Z,47.07
2023-01-22T20:30:02.616Z,45.20
2023-01-22T20:34:15.138Z,42.99
2023-01-22T20:38:29.070Z,43.82
2023-01-22T20:42:41.492Z,42.64
2023-01-22T20:46:54.481Z,44.24
2023-01-22T20:51:15.337Z,44.05
2023-01-22T20:55:28.408Z,44.30
2023-01-22T20:59:40.786Z,44.96
2023-01-22T21:03:54.084Z,43.45
2023-01-22T21:08:07.119Z,45.04
2023-01-22T21:12:19.911Z,44.64
2023-01-22T21:16:36.266Z,43.22
2023-01-22T21:20:49.234Z,44.95
2023-01-22T21:25:02.132Z,43.91
2023-01-22T21:29:17.420Z,43.22
2023-01-22T21:33:29.891Z,44.17
2023-01-22T21:37:42.428Z,43.47
2023-01-22T21:42:14.308Z,44.11
2023-01-22T21:46:28.385Z,44.49
2023-01-22T21:50:42.358Z,46.42
2023-01-22T21:54:54.824Z,49.74
2023-01-22T21:59:07.290Z,49.61
2023-01-22T22:03:19.679Z,50.57
2023-01-22T22:07:32.142Z,46.08
2023-01-22T22:11:45.473Z,44.93
2023-01-22T22:16:05.424Z,45.66
2023-01-22T22:20:18.104Z,45.79
2023-01-22T22:24:30.742Z,46.80
2023-01-22T22:28:43.260Z,46.47
2023-01-22T22:32:55.770Z,46.75
2023-01-22T22:37:08.206Z,47.56
2023-01-22T22:41:26.407Z,47.31
2023-01-22T22:45:39.164Z,48.96
2023-01-22T22:49:51.573Z,46.91
2023-01-22T22:54:12.838Z,46.67
2023-01-22T22:58:25.185Z,47.72
2023-01-22T23:02:37.811Z,48.07
2023-01-22T23:06:50.245Z,49.50
2023-01-22T23:11:04.761Z,49.19
2023-01-22T23:15:17.198Z,50.06
2023-01-22T23:19:29.620Z,52.13
2023-01-22T23:23:42.943Z,51.64
2023-01-22T23:27:56.063Z,54.69
2023-01-22T23:32:08.456Z,53.91
2023-01-22T23:36:21.430Z,55.01
2023-01-22T23:40:37.153Z,53.16
2023-01-22T23:44:51.809Z,54.29
2023-01-22T23:49:05.494Z,55.80
2023-01-22T23:53:18.181Z,56.76
2023-01-22T23:57:30.636Z,57.70
